Etusivu
METAR-TAF:

METAR-TAF

Lentoasemat :

Diori Hamanin kansainvälinen lentoasema

Niamey, Niger

Leveyspiiri: 13-29N, Pituuspiiri: 002-10E, korkeus merenpinnasta: 223 m

Tämänhetkinen sää

Tämä raportti tehtiin 37 minuuttia sitten, kello 04.00 UTC
Tuuli 8 kn pohjoisesta/koillisesta
Lämpötila 25°C
Kosteus 15%
Ilmanpaine 1009 hPa
Näkyvyys 10 km tai enemmän
ei pilviä alle 1500 m:ssä eikä cumulonimbus-pilviä

METAR: DRRN 130400Z 03008KT CAVOK 25/M03 Q1009 NOSIG

Aika: 05:37 (04:37 UTC)

Sääennuste

Tämä raportti tehtiin 5 tuntia ja 37 minuuttia sitten, kello 23.00 UTC
Ennuste voimassa 13. päivästä klo 00 UTC - 14. päivään klo 06 UTC
Tuuli 10 kn pohjoisesta
Näkyvyys: 8000 m
Ajoittain
13. päivästä klo 06 UTC - 13. päivään klo 09 UTC
Näkyvyys: 3000 m
laajalle levinnyttä pölyä

TAF: DRRN 122300Z 1300/1406 01010KT 8000 NSC TEMPO 1306/1309 3000 DU

Säähavainnot ja -ennusteet yli 4000 lentoasemalta (METAR- ja TAF-raportit).

Käytössä olevat sääasemat on merkitty karttaan keltaisilla ja punaisilla pisteillä.

Aseta hiiri pisteen päälle nähdäksesi sääaseman nimen.

Klikkaa sitten nähdäksesi säähavainnot ja -ennusteet.

Kartan vaihtaminen: klikkaa mustalla rastilla varustettuja vihreitä pisteitä, niin voit zoomata sisään; viivalla varustettua vihreää pistettä, niin voit zoomata ulos tai vihreitä nuolia, niin pääset viereisille kartoille.


METAR-TAF: